createdAt,value
2018-12-09T00:02:54.354Z,6.90
2018-12-09T00:08:17.813Z,6.50
2018-12-09T00:10:54.484Z,6.40
2018-12-09T00:13:36.607Z,6.40
2018-12-09T00:16:09.386Z,6.40
2018-12-09T00:18:43.578Z,6.40
2018-12-09T00:21:13.711Z,6.40
2018-12-09T00:23:40.927Z,6.40
2018-12-09T00:26:08.283Z,6.40
2018-12-09T00:28:35.566Z,6.40
2018-12-09T00:31:02.877Z,6.40
2018-12-09T00:33:30.102Z,6.50
2018-12-09T00:35:57.284Z,6.50
2018-12-09T00:38:24.501Z,6.50
2018-12-09T00:40:51.816Z,6.50
2018-12-09T00:43:19.223Z,6.50
2018-12-09T00:45:46.532Z,6.50
2018-12-09T00:48:13.734Z,6.50
2018-12-09T00:50:41.038Z,6.60
2018-12-09T00:53:08.230Z,6.70
2018-12-09T00:55:35.569Z,6.70
2018-12-09T00:58:02.768Z,6.60
2018-12-09T01:00:30.206Z,6.70
2018-12-09T01:02:57.652Z,6.70
2018-12-09T01:05:25.265Z,6.70
2018-12-09T01:07:52.678Z,6.70
2018-12-09T01:10:19.866Z,6.70
2018-12-09T01:12:47.183Z,6.70
2018-12-09T01:15:17.463Z,6.70
2018-12-09T01:17:44.765Z,6.70
2018-12-09T01:20:12.068Z,7.00
2018-12-09T01:22:39.245Z,7.00
2018-12-09T01:25:06.677Z,7.00
2018-12-09T01:27:34.377Z,7.00
2018-12-09T01:30:01.978Z,7.00
2018-12-09T01:32:29.327Z,7.00
2018-12-09T01:34:56.537Z,7.20
2018-12-09T01:37:23.734Z,7.20
2018-12-09T01:39:51.038Z,7.20
2018-12-09T01:42:18.230Z,7.20
2018-12-09T01:44:45.533Z,7.20
2018-12-09T01:47:12.831Z,7.30
2018-12-09T01:49:40.070Z,7.30
2018-12-09T01:52:07.294Z,7.60
2018-12-09T01:54:34.508Z,7.40
2018-12-09T01:57:02.137Z,7.60
2018-12-09T01:59:29.446Z,7.80
2018-12-09T02:01:56.652Z,7.90
2018-12-09T02:04:24.071Z,8.00
2018-12-09T02:06:51.310Z,8.00
2018-12-09T02:09:18.634Z,7.90
2018-12-09T02:11:45.942Z,8.10
2018-12-09T02:14:13.349Z,8.20
2018-12-09T02:16:40.546Z,8.30
2018-12-09T02:19:17.753Z,8.20
2018-12-09T02:21:45.903Z,8.30
2018-12-09T02:24:13.334Z,8.30
2018-12-09T02:26:40.772Z,8.40
2018-12-09T02:29:08.458Z,8.30
2018-12-09T02:31:36.286Z,8.40
2018-12-09T02:34:03.641Z,8.30
2018-12-09T02:36:31.291Z,8.40
2018-12-09T02:38:58.625Z,8.40
2018-12-09T02:41:26.061Z,8.50
2018-12-09T02:43:54.133Z,8.50
2018-12-09T02:46:21.561Z,8.50
2018-12-09T02:48:49.203Z,8.60
2018-12-09T02:51:16.611Z,8.50
2018-12-09T02:53:43.829Z,8.50
2018-12-09T02:56:11.038Z,8.40
2018-12-09T02:58:38.280Z,8.50
2018-12-09T03:01:05.905Z,8.40
2018-12-09T03:03:33.214Z,8.50
2018-12-09T03:06:00.427Z,8.60
2018-12-09T03:08:27.734Z,8.60
2018-12-09T03:10:54.910Z,8.60
2018-12-09T03:13:22.218Z,8.70
2018-12-09T03:15:49.425Z,8.80
2018-12-09T03:18:16.726Z,8.80
2018-12-09T03:20:44.300Z,8.80
2018-12-09T03:23:11.714Z,8.70
2018-12-09T03:25:38.916Z,8.70
2018-12-09T03:28:06.132Z,8.70
2018-12-09T03:30:33.670Z,8.80
2018-12-09T03:33:00.980Z,8.80
2018-12-09T03:35:28.270Z,8.80
2018-12-09T03:37:55.715Z,8.70
2018-12-09T03:40:22.919Z,8.70
2018-12-09T03:42:50.111Z,8.60
2018-12-09T03:45:17.332Z,8.50
2018-12-09T03:47:44.614Z,8.50
2018-12-09T03:50:12.360Z,8.40
2018-12-09T03:52:39.674Z,8.30
2018-12-09T03:55:07.108Z,8.20
2018-12-09T03:57:34.330Z,8.10
2018-12-09T04:00:01.573Z,8.10
2018-12-09T04:02:29.155Z,8.10
2018-12-09T04:04:56.475Z,8.10
2018-12-09T04:07:23.686Z,8.10
2018-12-09T04:09:50.879Z,8.10
2018-12-09T04:12:18.385Z,8.10
2018-12-09T04:14:46.024Z,8.10
2018-12-09T04:17:13.351Z,8.10
2018-12-09T04:19:40.762Z,8.10
2018-12-09T04:22:07.983Z,8.10
2018-12-09T04:24:35.198Z,8.10
2018-12-09T04:27:02.515Z,8.10
2018-12-09T04:29:29.727Z,8.20
2018-12-09T04:31:56.912Z,8.20
2018-12-09T04:34:24.210Z,8.20
2018-12-09T04:36:51.544Z,8.20
2018-12-09T04:39:18.751Z,8.30
2018-12-09T04:41:45.958Z,8.40
2018-12-09T04:44:13.161Z,8.20
2018-12-09T04:46:40.468Z,8.30
2018-12-09T04:49:07.690Z,8.20
2018-12-09T04:51:46.449Z,8.20
2018-12-09T04:54:13.754Z,8.20
2018-12-09T04:56:41.107Z,8.10
2018-12-09T04:59:16.346Z,8.20
2018-12-09T05:01:44.669Z,8.10
2018-12-09T05:04:12.179Z,8.00
2018-12-09T05:06:39.682Z,8.00
2018-12-09T05:09:06.986Z,8.00
2018-12-09T05:11:34.309Z,7.90
2018-12-09T05:14:02.019Z,8.00
2018-12-09T05:16:29.229Z,8.00
2018-12-09T05:18:56.530Z,8.00
2018-12-09T05:21:23.848Z,7.90
2018-12-09T05:23:51.047Z,7.90
2018-12-09T05:26:18.450Z,7.80
2018-12-09T05:28:45.646Z,7.60
2018-12-09T05:31:12.963Z,7.50
2018-12-09T05:33:40.151Z,7.40
2018-12-09T05:36:07.357Z,7.30
2018-12-09T05:38:34.558Z,7.30
2018-12-09T05:41:01.994Z,7.30
2018-12-09T05:43:29.561Z,7.30
2018-12-09T05:45:56.917Z,7.20
2018-12-09T05:48:24.138Z,7.20
2018-12-09T05:50:51.349Z,7.10
2018-12-09T05:53:18.651Z,7.30
2018-12-09T05:55:45.882Z,7.30
2018-12-09T05:58:13.188Z,7.30
2018-12-09T06:00:40.370Z,7.30
2018-12-09T06:03:07.574Z,7.30
2018-12-09T06:05:35.298Z,7.40
2018-12-09T06:08:02.776Z,7.40
2018-12-09T06:10:29.985Z,7.40
2018-12-09T06:12:57.250Z,7.40
2018-12-09T06:15:24.673Z,7.50
2018-12-09T06:17:52.038Z,7.60
2018-12-09T06:20:19.235Z,7.60
2018-12-09T06:22:46.443Z,7.60
2018-12-09T06:25:13.755Z,7.70
2018-12-09T06:27:40.990Z,7.70
2018-12-09T06:30:09.913Z,7.70
2018-12-09T06:32:37.298Z,7.60
2018-12-09T06:35:04.806Z,7.60
2018-12-09T06:37:32.238Z,7.60
2018-12-09T06:39:59.430Z,7.50
2018-12-09T06:42:26.746Z,7.40
2018-12-09T06:44:53.949Z,7.40
2018-12-09T06:47:21.159Z,7.30
2018-12-09T06:49:48.371Z,7.30
2018-12-09T06:52:15.553Z,7.30
2018-12-09T06:54:42.865Z,7.30
2018-12-09T06:57:10.610Z,7.20
2018-12-09T06:59:37.974Z,7.20
2018-12-09T07:02:05.290Z,7.20
2018-12-09T07:04:32.486Z,7.20
2018-12-09T07:06:59.891Z,7.20
2018-12-09T07:09:27.088Z,7.20
2018-12-09T07:11:54.511Z,7.10
2018-12-09T07:14:21.714Z,7.10
2018-12-09T07:16:48.938Z,7.10
2018-12-09T07:19:16.229Z,7.10
2018-12-09T07:21:43.419Z,7.20
2018-12-09T07:24:11.137Z,7.20
2018-12-09T07:26:38.457Z,7.20
2018-12-09T07:29:05.846Z,6.90
2018-12-09T07:31:33.047Z,7.10
2018-12-09T07:34:00.271Z,7.10
2018-12-09T07:36:27.475Z,7.10
2018-12-09T07:38:54.766Z,7.10
2018-12-09T07:41:21.978Z,7.00
2018-12-09T07:43:49.191Z,7.00
2018-12-09T07:46:16.391Z,7.00
2018-12-09T07:48:43.589Z,7.00
2018-12-09T07:51:11.206Z,7.00
2018-12-09T07:53:38.445Z,7.00
2018-12-09T07:56:05.642Z,6.90
2018-12-09T07:58:32.822Z,6.90
2018-12-09T08:01:00.022Z,7.00
2018-12-09T08:03:27.251Z,7.00
2018-12-09T08:05:54.476Z,7.00
2018-12-09T08:08:21.682Z,7.10
2018-12-09T08:10:48.874Z,7.10
2018-12-09T08:13:16.142Z,7.10
2018-12-09T08:15:43.333Z,7.10
2018-12-09T08:18:10.554Z,7.10
2018-12-09T08:20:38.018Z,7.10
2018-12-09T08:23:05.486Z,7.10
2018-12-09T08:25:32.787Z,7.20
2018-12-09T08:28:00.050Z,7.30
2018-12-09T08:30:27.298Z,7.30
2018-12-09T08:32:54.530Z,7.40
2018-12-09T08:35:21.787Z,7.50
2018-12-09T08:37:48.987Z,7.50
2018-12-09T08:40:16.230Z,7.50
2018-12-09T08:42:43.462Z,7.60
2018-12-09T08:45:10.946Z,7.60
2018-12-09T08:47:38.150Z,7.60
2018-12-09T08:50:05.790Z,7.60
2018-12-09T08:52:33.035Z,7.60
2018-12-09T08:55:00.228Z,7.50
2018-12-09T08:57:27.473Z,7.50
2018-12-09T08:59:54.713Z,7.50
2018-12-09T09:02:21.913Z,7.60
2018-12-09T09:04:49.123Z,7.60
2018-12-09T09:07:16.678Z,7.70
2018-12-09T09:09:43.870Z,7.80
2018-12-09T09:12:11.079Z,7.90
2018-12-09T09:14:38.672Z,8.00
2018-12-09T09:17:06.107Z,7.90
2018-12-09T09:19:33.366Z,8.00
2018-12-09T09:22:00.601Z,8.00
2018-12-09T09:24:27.793Z,8.00
2018-12-09T09:26:55.122Z,8.10
2018-12-09T09:29:22.344Z,8.00
2018-12-09T09:34:16.851Z,7.80
2018-12-09T09:36:44.287Z,7.90
2018-12-09T09:39:11.487Z,8.00
2018-12-09T09:41:38.830Z,7.90
2018-12-09T09:44:06.155Z,8.00
2018-12-09T09:46:33.339Z,8.00
2018-12-09T09:49:00.555Z,8.00
2018-12-09T09:51:27.753Z,8.00
2018-12-09T09:53:55.180Z,8.00
2018-12-09T09:56:22.447Z,8.00
2018-12-09T09:58:49.782Z,8.00
2018-12-09T10:01:17.121Z,8.10
2018-12-09T10:03:44.353Z,8.00
2018-12-09T10:06:11.714Z,8.00
2018-12-09T10:08:39.061Z,8.10
2018-12-09T10:13:34.681Z,8.10
2018-12-09T10:16:02.032Z,8.90
2018-12-09T10:18:29.262Z,8.10
2018-12-09T10:20:56.459Z,8.10
2018-12-09T10:23:23.665Z,8.00
2018-12-09T10:25:50.885Z,8.00
2018-12-09T10:28:18.098Z,7.90
2018-12-09T10:30:45.302Z,8.00
2018-12-09T10:33:12.595Z,7.90
2018-12-09T10:35:39.824Z,7.80
2018-12-09T10:38:07.203Z,7.80
2018-12-09T10:40:34.548Z,7.70
2018-12-09T10:43:01.801Z,7.70
2018-12-09T10:45:29.184Z,7.80
2018-12-09T10:47:56.541Z,7.90
2018-12-09T10:50:23.819Z,7.90
2018-12-09T10:52:51.513Z,8.00
2018-12-09T10:55:18.995Z,8.00
2018-12-09T10:57:46.195Z,8.00
2018-12-09T11:00:16.251Z,8.00
2018-12-09T11:02:43.477Z,7.90
2018-12-09T11:05:10.863Z,8.10
2018-12-09T11:07:38.070Z,8.30
2018-12-09T11:10:06.138Z,8.30
2018-12-09T11:12:33.431Z,8.50
2018-12-09T11:15:00.653Z,8.70
2018-12-09T11:17:27.912Z,8.40
2018-12-09T11:19:55.131Z,8.40
2018-12-09T11:22:22.735Z,8.40
2018-12-09T11:24:49.934Z,8.30
2018-12-09T11:27:17.406Z,8.30
2018-12-09T11:29:44.645Z,8.30
2018-12-09T11:32:11.864Z,8.40
2018-12-09T11:34:39.122Z,8.30
2018-12-09T11:37:07.133Z,8.20
2018-12-09T11:39:34.451Z,8.20
2018-12-09T11:42:01.727Z,8.20
2018-12-09T11:44:29.032Z,8.20
2018-12-09T11:46:56.415Z,8.10
2018-12-09T11:49:23.728Z,8.00
2018-12-09T11:51:50.937Z,8.00
2018-12-09T11:54:18.263Z,7.90
2018-12-09T11:56:45.491Z,7.90
2018-12-09T11:59:12.815Z,8.00
2018-12-09T12:01:40.054Z,7.80
2018-12-09T12:04:07.283Z,7.80
2018-12-09T12:06:34.537Z,7.80
2018-12-09T12:09:01.854Z,7.80
2018-12-09T12:11:29.111Z,7.80
2018-12-09T12:13:56.291Z,7.70
2018-12-09T12:16:23.532Z,7.60
2018-12-09T12:18:50.722Z,7.50
2018-12-09T12:21:17.977Z,7.50
2018-12-09T12:23:45.171Z,7.50
2018-12-09T12:26:13.498Z,7.50
2018-12-09T12:28:40.951Z,7.50
2018-12-09T12:31:08.220Z,7.40
2018-12-09T12:33:35.527Z,7.50
2018-12-09T12:36:02.738Z,7.50
2018-12-09T12:38:30.050Z,7.60
2018-12-09T12:40:57.261Z,7.50
2018-12-09T12:43:24.494Z,7.60
2018-12-09T12:45:51.817Z,7.60
2018-12-09T12:48:19.151Z,7.60
2018-12-09T12:50:46.487Z,7.70
2018-12-09T12:53:13.907Z,7.70
2018-12-09T12:55:41.142Z,7.70
2018-12-09T12:58:08.371Z,7.70
2018-12-09T13:00:35.689Z,7.70
2018-12-09T13:03:03.020Z,7.90
2018-12-09T13:05:30.290Z,7.80
2018-12-09T13:07:57.614Z,7.70
2018-12-09T13:10:24.879Z,7.70
2018-12-09T13:12:52.110Z,7.60
2018-12-09T13:15:19.338Z,7.50
2018-12-09T13:17:46.574Z,7.50
2018-12-09T13:20:13.775Z,7.40
2018-12-09T13:22:40.995Z,7.40
2018-12-09T13:25:08.475Z,7.30
2018-12-09T13:27:35.708Z,7.30
2018-12-09T13:30:03.433Z,7.30
2018-12-09T13:32:30.654Z,7.30
2018-12-09T13:34:58.070Z,7.30
2018-12-09T13:37:25.542Z,7.30
2018-12-09T13:39:52.789Z,7.40
2018-12-09T13:42:19.990Z,7.40
2018-12-09T13:44:47.208Z,7.40
2018-12-09T13:47:14.430Z,7.40
2018-12-09T13:49:41.655Z,7.50
2018-12-09T13:52:08.854Z,7.40
2018-12-09T13:54:36.071Z,7.40
2018-12-09T13:57:03.327Z,7.30
2018-12-09T13:59:30.562Z,7.40
2018-12-09T14:01:57.770Z,7.00
2018-12-09T14:04:25.093Z,7.40
2018-12-09T14:06:52.487Z,7.30
2018-12-09T14:09:19.713Z,7.30
2018-12-09T14:11:46.890Z,7.30
2018-12-09T14:14:14.392Z,7.30
2018-12-09T14:16:41.806Z,7.40
2018-12-09T14:19:08.986Z,7.40
2018-12-09T14:21:36.300Z,7.30
2018-12-09T14:24:03.762Z,7.40
2018-12-09T14:26:31.065Z,7.30
2018-12-09T14:28:58.503Z,7.50
2018-12-09T14:31:27.894Z,7.30
2018-12-09T14:33:55.068Z,7.30
2018-12-09T14:36:22.406Z,7.30
2018-12-09T14:38:49.754Z,7.30
2018-12-09T14:41:16.935Z,7.30
2018-12-09T14:43:44.106Z,7.30
2018-12-09T14:46:11.319Z,7.30
2018-12-09T14:48:38.507Z,7.30
2018-12-09T14:51:05.711Z,7.30
2018-12-09T14:53:32.894Z,7.40
2018-12-09T14:56:00.126Z,7.40
2018-12-09T14:58:27.335Z,7.40
2018-12-09T15:00:54.610Z,7.30
2018-12-09T15:03:21.850Z,7.40
2018-12-09T15:05:49.151Z,7.40
2018-12-09T15:08:16.378Z,7.30
2018-12-09T15:10:43.746Z,7.40
2018-12-09T15:13:11.066Z,7.40
2018-12-09T15:15:38.282Z,7.40
2018-12-09T15:18:05.626Z,7.40
2018-12-09T15:20:32.838Z,7.40
2018-12-09T15:23:00.058Z,7.40
2018-12-09T15:25:27.343Z,7.40
2018-12-09T15:27:54.559Z,7.50
2018-12-09T15:30:21.780Z,7.50
2018-12-09T15:32:49.074Z,7.50
2018-12-09T15:35:16.386Z,7.50
2018-12-09T15:37:43.608Z,7.50
2018-12-09T15:40:10.934Z,7.50
2018-12-09T15:42:38.149Z,7.50
2018-12-09T15:45:06.918Z,7.50
2018-12-09T15:47:34.134Z,7.50
2018-12-09T15:50:01.461Z,7.40
2018-12-09T15:52:28.675Z,7.50
2018-12-09T15:54:55.895Z,7.50
2018-12-09T15:57:23.077Z,7.40
2018-12-09T15:59:50.279Z,7.40
2018-12-09T16:02:17.457Z,7.30
2018-12-09T16:04:44.660Z,7.30
2018-12-09T16:07:11.895Z,7.20
2018-12-09T16:09:39.148Z,7.10
2018-12-09T16:12:07.211Z,7.00
2018-12-09T16:14:34.410Z,7.00
2018-12-09T16:17:01.897Z,7.00
2018-12-09T16:19:29.087Z,7.00
2018-12-09T16:21:56.262Z,7.00
2018-12-09T16:24:23.478Z,6.90
2018-12-09T16:26:50.646Z,7.00
2018-12-09T16:29:18.044Z,6.90
2018-12-09T16:31:45.342Z,7.00
2018-12-09T16:34:12.561Z,7.00
2018-12-09T16:36:39.740Z,7.00
2018-12-09T16:39:07.215Z,6.90
2018-12-09T16:41:34.639Z,6.90
2018-12-09T16:44:02.059Z,6.90
2018-12-09T16:46:29.256Z,6.90
2018-12-09T16:48:56.631Z,6.90
2018-12-09T16:51:23.931Z,6.90
2018-12-09T16:53:51.125Z,6.90
2018-12-09T16:56:18.348Z,6.80
2018-12-09T16:58:45.562Z,6.80
2018-12-09T17:01:12.786Z,6.80
2018-12-09T17:03:39.978Z,7.20
2018-12-09T17:06:07.282Z,6.80
2018-12-09T17:08:34.634Z,6.80
2018-12-09T17:11:01.918Z,6.80
2018-12-09T17:13:29.118Z,6.70
2018-12-09T17:15:56.338Z,6.80
2018-12-09T17:18:23.537Z,6.70
2018-12-09T17:20:50.754Z,6.80
2018-12-09T17:23:18.068Z,6.80
2018-12-09T17:25:45.314Z,6.80
2018-12-09T17:28:12.539Z,6.80
2018-12-09T17:30:39.742Z,6.80
2018-12-09T17:33:06.939Z,6.80
2018-12-09T17:35:34.182Z,6.80
2018-12-09T17:38:01.390Z,6.80
2018-12-09T17:40:28.648Z,6.80
2018-12-09T17:42:55.850Z,6.80
2018-12-09T17:45:23.218Z,6.80
2018-12-09T17:47:50.614Z,6.70
2018-12-09T17:50:17.878Z,6.80
2018-12-09T17:52:45.076Z,6.80
2018-12-09T17:55:12.290Z,6.80
2018-12-09T17:57:39.511Z,6.90
2018-12-09T18:00:08.137Z,6.80
2018-12-09T18:02:35.351Z,6.80
2018-12-09T18:05:02.669Z,6.70
2018-12-09T18:07:29.848Z,6.60
2018-12-09T18:09:57.082Z,6.60
2018-12-09T18:12:24.314Z,6.60
2018-12-09T18:14:51.516Z,6.50
2018-12-09T18:17:18.778Z,6.50
2018-12-09T18:19:46.175Z,6.60
2018-12-09T18:22:26.874Z,6.60
2018-12-09T18:24:54.427Z,6.60
2018-12-09T18:27:21.876Z,6.60
2018-12-09T18:29:49.458Z,5.50
2018-12-09T18:32:16.921Z,6.70
2018-12-09T18:34:44.294Z,7.10
2018-12-09T18:37:12.208Z,6.70
2018-12-09T18:39:39.880Z,6.70
2018-12-09T18:42:07.194Z,6.70
2018-12-09T18:44:34.419Z,6.70
2018-12-09T18:47:01.669Z,6.70
2018-12-09T18:49:28.873Z,6.80
2018-12-09T18:51:56.125Z,6.80
2018-12-09T18:54:23.457Z,6.70
2018-12-09T18:56:50.671Z,6.80
2018-12-09T18:59:17.898Z,6.80
2018-12-09T19:01:45.179Z,6.80
2018-12-09T19:04:12.370Z,6.80
2018-12-09T19:06:39.607Z,6.80
2018-12-09T19:09:06.995Z,6.80
2018-12-09T19:11:34.186Z,6.70
2018-12-09T19:14:01.555Z,6.70
2018-12-09T19:16:28.896Z,6.60
2018-12-09T19:18:56.300Z,6.50
2018-12-09T19:21:23.622Z,6.50
2018-12-09T19:23:50.897Z,6.50
2018-12-09T19:26:18.240Z,6.40
2018-12-09T19:28:45.529Z,6.40
2018-12-09T19:31:12.802Z,6.30
2018-12-09T19:33:40.103Z,6.30
2018-12-09T19:36:07.346Z,6.40
2018-12-09T19:38:40.144Z,6.30
2018-12-09T19:41:03.865Z,6.30
2018-12-09T19:43:31.081Z,6.30
2018-12-09T19:45:58.659Z,6.30
2018-12-09T19:48:26.075Z,6.20
2018-12-09T19:50:53.447Z,6.20
2018-12-09T19:53:20.682Z,6.20
2018-12-09T19:55:47.873Z,6.20
2018-12-09T19:58:15.117Z,6.20
2018-12-09T20:00:42.314Z,6.20
2018-12-09T20:03:09.998Z,6.20
2018-12-09T20:05:37.491Z,6.20
2018-12-09T20:08:04.678Z,6.20
2018-12-09T20:10:33.517Z,6.20
2018-12-09T20:13:00.757Z,6.20
2018-12-09T20:15:28.206Z,6.20
2018-12-09T20:17:55.408Z,6.20
2018-12-09T20:20:22.734Z,6.20
2018-12-09T20:22:49.966Z,6.20
2018-12-09T20:25:17.321Z,6.20
2018-12-09T20:27:44.752Z,6.30
2018-12-09T20:30:12.187Z,6.20
2018-12-09T20:32:39.410Z,6.20
2018-12-09T20:35:06.807Z,6.30
2018-12-09T20:37:34.050Z,6.30
2018-12-09T20:40:01.259Z,6.30
2018-12-09T20:42:28.550Z,6.40
2018-12-09T20:44:55.886Z,6.30
2018-12-09T20:47:23.100Z,6.30
2018-12-09T20:49:50.307Z,6.40
2018-12-09T20:52:17.555Z,6.40
2018-12-09T20:54:44.826Z,6.40
2018-12-09T20:57:12.141Z,6.40
2018-12-09T20:59:39.725Z,6.40
2018-12-09T21:02:07.107Z,6.40
2018-12-09T21:04:34.619Z,6.50
2018-12-09T21:07:01.835Z,6.50
2018-12-09T21:09:29.047Z,6.50
2018-12-09T21:11:56.282Z,6.40
2018-12-09T21:14:23.541Z,6.40
2018-12-09T21:16:50.790Z,6.30
2018-12-09T21:19:18.015Z,6.40
2018-12-09T21:21:45.275Z,6.40
2018-12-09T21:24:12.483Z,6.30
2018-12-09T21:26:39.848Z,6.30
2018-12-09T21:29:07.138Z,6.30
2018-12-09T21:31:34.491Z,6.30
2018-12-09T21:34:01.678Z,6.20
2018-12-09T21:36:29.067Z,6.10
2018-12-09T21:38:56.401Z,6.10
2018-12-09T21:41:23.686Z,6.10
2018-12-09T21:43:51.008Z,6.10
2018-12-09T21:46:18.214Z,6.00
2018-12-09T21:48:45.442Z,6.00
2018-12-09T21:51:12.654Z,6.10
2018-12-09T21:53:39.841Z,6.10
2018-12-09T21:56:07.396Z,6.00
2018-12-09T21:58:34.679Z,6.10
2018-12-09T22:01:01.889Z,6.10
2018-12-09T22:03:29.282Z,6.10
2018-12-09T22:05:59.590Z,6.20
2018-12-09T22:08:27.324Z,6.10
2018-12-09T22:10:54.539Z,6.10
2018-12-09T22:13:21.803Z,6.30
2018-12-09T22:15:51.053Z,6.20
2018-12-09T22:18:18.302Z,6.20
2018-12-09T22:20:45.562Z,6.30
2018-12-09T22:23:12.927Z,6.40
2018-12-09T22:25:40.136Z,6.20
2018-12-09T22:28:07.389Z,6.30
2018-12-09T22:30:34.623Z,6.40
2018-12-09T22:33:01.842Z,6.30
2018-12-09T22:35:29.075Z,6.40
2018-12-09T22:37:56.597Z,6.40
2018-12-09T22:40:23.831Z,6.30
2018-12-09T22:42:51.062Z,6.40
2018-12-09T22:45:19.347Z,6.30
2018-12-09T22:47:46.550Z,6.20
2018-12-09T22:50:13.924Z,6.10
2018-12-09T22:52:41.350Z,6.10
2018-12-09T22:55:08.566Z,6.10
2018-12-09T22:57:35.762Z,5.50
2018-12-09T23:00:09.133Z,6.10
2018-12-09T23:02:42.000Z,6.10
2018-12-09T23:05:09.314Z,6.00
2018-12-09T23:07:42.331Z,6.00
2018-12-09T23:10:09.650Z,5.90
2018-12-09T23:12:36.838Z,6.00
2018-12-09T23:15:04.614Z,6.00
2018-12-09T23:17:31.809Z,6.00
2018-12-09T23:19:58.973Z,6.10
2018-12-09T23:22:26.191Z,6.10
2018-12-09T23:24:53.391Z,6.10
2018-12-09T23:27:20.587Z,6.20
2018-12-09T23:29:47.926Z,6.20
2018-12-09T23:32:15.224Z,6.30
2018-12-09T23:34:42.431Z,6.30
2018-12-09T23:37:09.657Z,6.30
2018-12-09T23:39:36.901Z,6.20
2018-12-09T23:42:04.245Z,6.30
2018-12-09T23:44:31.436Z,6.30
2018-12-09T23:46:58.658Z,6.30
2018-12-09T23:49:26.014Z,6.30
2018-12-09T23:51:53.214Z,6.20
2018-12-09T23:54:20.398Z,6.20
2018-12-09T23:56:47.707Z,6.20
2018-12-09T23:59:14.905Z,6.20
